KMTC/MTC METAR and TAF weather

Enter ICAO airport designator
Station Type Date Time Source
KMTC METAR 2021/01/26 20:24 UTC NOAA

KMTC 262024Z 35009KT 2 1/2SM -FZDZSN BR OVC010 M01/M01 A2975 RMK AO2A SLP086 $


Station Type Date Time Source
KMTC Decoded METAR 2021/01/26 20:24 UTC NOAA

Selfridge Air National Guard Base, MI, United States (KMTC) 42-37N 082-50W
Jan 26, 2021 - 03:24 PM EST / 2021.01.26 2024 UTC
Wind: from the N (350 degrees) at 10 MPH (9 KT):0
Visibility: 2 1/2 mile(s):0
Sky conditions: overcast
Weather: light freezing drizzle, snow; mist
Temperature: 30 F (-1 C)
Windchill: 21 F (-6 C):1
Dew Point: 30 F (-1 C)
Relative Humidity: 100%
Pressure (altimeter): 29.75 in. Hg (1007 hPa)
ob: KMTC 262024Z 35009KT 2 1/2SM -FZDZSN BR OVC010 M01/M01 A2975 RMK AO2A SLP086
cycle: 20

Station Type Date Time Source
KMTC TAF 2021/01/26 19:42 UTC NOAA

TAF
AMD KMTC 261930Z 2619/2723 36009KT 9000 -SN OVC010 650106 QNH2969INS
TEMPO 2619/2624 02009KT 8000 -FZDZ OVC008 660005
BECMG 2700/2701 33009KT 9999 NSW OVC010 620106 QNH2983INS
BECMG 2704/2706 32009KT 8000 -SN BKN005 OVC010 650052 QNH2995INS
BECMG 2706/2707 32012KT 9999 NSW OVC015 620152 QNH3002INS TX02/2619Z TNM05/2709Z

Example: see airport list